sensor_id;sensor_type;location;lat;lon;timestamp;P1;durP1;ratioP1;P2;durP2;ratioP2
52972;SDS011;38837;48.916;2.336;2023-06-22T00:00:20;5.15;;;2.92;;
52972;SDS011;38837;48.916;2.336;2023-06-22T00:02:23;5.13;;;3.17;;
52972;SDS011;38837;48.916;2.336;2023-06-22T00:04:24;3.38;;;2.40;;
52972;SDS011;38837;48.916;2.336;2023-06-22T00:06:27;3.50;;;2.78;;
52972;SDS011;38837;48.916;2.336;2023-06-22T00:08:28;3.60;;;2.97;;
52972;SDS011;38837;48.916;2.336;2023-06-22T00:10:30;3.22;;;2.60;;
52972;SDS011;38837;48.916;2.336;2023-06-22T00:12:32;3.92;;;2.63;;
52972;SDS011;38837;48.916;2.336;2023-06-22T00:14:34;3.42;;;2.55;;
52972;SDS011;38837;48.916;2.336;2023-06-22T00:16:36;3.65;;;2.58;;
52972;SDS011;38837;48.916;2.336;2023-06-22T00:18:38;3.10;;;2.50;;
52972;SDS011;38837;48.916;2.336;2023-06-22T00:20:41;3.55;;;2.88;;
52972;SDS011;38837;48.916;2.336;2023-06-22T00:22:46;3.28;;;2.90;;
52972;SDS011;38837;48.916;2.336;2023-06-22T00:24:49;3.38;;;2.90;;
52972;SDS011;38837;48.916;2.336;2023-06-22T00:26:51;3.70;;;2.65;;
52972;SDS011;38837;48.916;2.336;2023-06-22T00:28:53;2.78;;;2.33;;
52972;SDS011;38837;48.916;2.336;2023-06-22T00:30:55;3.20;;;2.58;;
52972;SDS011;38837;48.916;2.336;2023-06-22T00:32:57;3.83;;;2.80;;
52972;SDS011;38837;48.916;2.336;2023-06-22T00:35:00;3.92;;;2.38;;
52972;SDS011;38837;48.916;2.336;2023-06-22T00:37:02;3.15;;;2.42;;
52972;SDS011;38837;48.916;2.336;2023-06-22T00:39:04;4.03;;;3.05;;
52972;SDS011;38837;48.916;2.336;2023-06-22T00:41:07;4.40;;;2.45;;
52972;SDS011;38837;48.916;2.336;2023-06-22T00:43:09;4.55;;;2.67;;
52972;SDS011;38837;48.916;2.336;2023-06-22T00:45:10;4.07;;;2.58;;
52972;SDS011;38837;48.916;2.336;2023-06-22T00:47:16;6.05;;;2.90;;
52972;SDS011;38837;48.916;2.336;2023-06-22T00:49:19;4.20;;;2.65;;
52972;SDS011;38837;48.916;2.336;2023-06-22T00:51:21;4.97;;;3.40;;
52972;SDS011;38837;48.916;2.336;2023-06-22T00:53:25;3.10;;;2.45;;
52972;SDS011;38837;48.916;2.336;2023-06-22T00:55:27;3.58;;;3.00;;
52972;SDS011;38837;48.916;2.336;2023-06-22T00:57:29;3.10;;;2.45;;
52972;SDS011;38837;48.916;2.336;2023-06-22T00:59:32;4.03;;;2.65;;
52972;SDS011;38837;48.916;2.336;2023-06-22T01:01:34;3.00;;;2.55;;
52972;SDS011;38837;48.916;2.336;2023-06-22T01:03:41;4.78;;;2.65;;
52972;SDS011;38837;48.916;2.336;2023-06-22T01:05:42;2.90;;;2.38;;
52972;SDS011;38837;48.916;2.336;2023-06-22T01:08:00;4.97;;;2.58;;
52972;SDS011;38837;48.916;2.336;2023-06-22T01:10:18;4.88;;;2.97;;
52972;SDS011;38837;48.916;2.336;2023-06-22T01:12:48;3.92;;;2.90;;
52972;SDS011;38837;48.916;2.336;2023-06-22T01:15:00;3.05;;;2.70;;
52972;SDS011;38837;48.916;2.336;2023-06-22T01:17:08;2.65;;;2.30;;
52972;SDS011;38837;48.916;2.336;2023-06-22T01:19:18;3.10;;;2.80;;
52972;SDS011;38837;48.916;2.336;2023-06-22T01:21:40;4.28;;;2.70;;
52972;SDS011;38837;48.916;2.336;2023-06-22T01:23:50;3.20;;;2.80;;
52972;SDS011;38837;48.916;2.336;2023-06-22T01:26:14;3.63;;;2.45;;
52972;SDS011;38837;48.916;2.336;2023-06-22T01:30:51;4.65;;;3.00;;
52972;SDS011;38837;48.916;2.336;2023-06-22T01:33:06;3.33;;;2.67;;
52972;SDS011;38837;48.916;2.336;2023-06-22T01:35:11;3.25;;;2.65;;
52972;SDS011;38837;48.916;2.336;2023-06-22T01:37:14;5.63;;;2.88;;
52972;SDS011;38837;48.916;2.336;2023-06-22T01:39:17;4.85;;;3.10;;
52972;SDS011;38837;48.916;2.336;2023-06-22T01:41:20;4.05;;;2.95;;
52972;SDS011;38837;48.916;2.336;2023-06-22T01:43:24;5.13;;;3.30;;
52972;SDS011;38837;48.916;2.336;2023-06-22T01:45:29;4.47;;;3.22;;
52972;SDS011;38837;48.916;2.336;2023-06-22T01:47:31;4.43;;;3.05;;
52972;SDS011;38837;48.916;2.336;2023-06-22T01:49:35;3.95;;;2.70;;
52972;SDS011;38837;48.916;2.336;2023-06-22T01:51:37;4.20;;;2.78;;
52972;SDS011;38837;48.916;2.336;2023-06-22T01:53:39;3.35;;;2.63;;
52972;SDS011;38837;48.916;2.336;2023-06-22T01:55:41;4.65;;;3.00;;
52972;SDS011;38837;48.916;2.336;2023-06-22T01:57:43;3.38;;;2.83;;
52972;SDS011;38837;48.916;2.336;2023-06-22T02:02:07;3.92;;;2.75;;
52972;SDS011;38837;48.916;2.336;2023-06-22T02:04:13;4.28;;;2.95;;
52972;SDS011;38837;48.916;2.336;2023-06-22T02:06:27;5.25;;;2.75;;
52972;SDS011;38837;48.916;2.336;2023-06-22T02:08:38;6.18;;;3.05;;
52972;SDS011;38837;48.916;2.336;2023-06-22T02:10:43;5.97;;;3.00;;
52972;SDS011;38837;48.916;2.336;2023-06-22T02:12:46;5.67;;;2.93;;
52972;SDS011;38837;48.916;2.336;2023-06-22T02:14:51;4.60;;;2.83;;
52972;SDS011;38837;48.916;2.336;2023-06-22T02:16:53;4.00;;;2.55;;
52972;SDS011;38837;48.916;2.336;2023-06-22T02:18:55;4.38;;;2.65;;
52972;SDS011;38837;48.916;2.336;2023-06-22T02:20:58;5.57;;;2.70;;
52972;SDS011;38837;48.916;2.336;2023-06-22T02:23:00;3.38;;;3.00;;
52972;SDS011;38837;48.916;2.336;2023-06-22T02:25:02;5.35;;;3.53;;
52972;SDS011;38837;48.916;2.336;2023-06-22T02:27:04;3.65;;;2.97;;
52972;SDS011;38837;48.916;2.336;2023-06-22T02:29:08;3.55;;;2.50;;
52972;SDS011;38837;48.916;2.336;2023-06-22T02:31:10;3.75;;;2.72;;
52972;SDS011;38837;48.916;2.336;2023-06-22T02:33:12;3.28;;;2.78;;
52972;SDS011;38837;48.916;2.336;2023-06-22T02:35:14;5.25;;;2.85;;
52972;SDS011;38837;48.916;2.336;2023-06-22T02:37:16;4.65;;;2.78;;
52972;SDS011;38837;48.916;2.336;2023-06-22T02:39:22;5.10;;;3.15;;
52972;SDS011;38837;48.916;2.336;2023-06-22T02:41:25;3.72;;;2.97;;
52972;SDS011;38837;48.916;2.336;2023-06-22T02:43:27;3.58;;;2.78;;
52972;SDS011;38837;48.916;2.336;2023-06-22T02:45:29;5.22;;;3.33;;
52972;SDS011;38837;48.916;2.336;2023-06-22T02:47:31;5.20;;;3.10;;
52972;SDS011;38837;48.916;2.336;2023-06-22T02:49:33;3.45;;;2.47;;
52972;SDS011;38837;48.916;2.336;2023-06-22T02:51:35;4.35;;;2.80;;
52972;SDS011;38837;48.916;2.336;2023-06-22T02:53:38;3.80;;;2.80;;
52972;SDS011;38837;48.916;2.336;2023-06-22T02:55:40;4.00;;;2.83;;
52972;SDS011;38837;48.916;2.336;2023-06-22T02:57:42;3.00;;;2.30;;
52972;SDS011;38837;48.916;2.336;2023-06-22T02:59:45;4.10;;;2.80;;
52972;SDS011;38837;48.916;2.336;2023-06-22T03:01:47;4.13;;;2.55;;
52972;SDS011;38837;48.916;2.336;2023-06-22T03:03:50;4.88;;;3.00;;
52972;SDS011;38837;48.916;2.336;2023-06-22T03:05:52;3.78;;;2.55;;
52972;SDS011;38837;48.916;2.336;2023-06-22T03:07:54;3.65;;;2.80;;
52972;SDS011;38837;48.916;2.336;2023-06-22T03:09:56;3.40;;;2.60;;
52972;SDS011;38837;48.916;2.336;2023-06-22T03:11:58;4.28;;;3.03;;
52972;SDS011;38837;48.916;2.336;2023-06-22T03:14:00;4.40;;;3.00;;
52972;SDS011;38837;48.916;2.336;2023-06-22T03:16:03;4.03;;;2.60;;
52972;SDS011;38837;48.916;2.336;2023-06-22T03:18:05;4.50;;;3.10;;
52972;SDS011;38837;48.916;2.336;2023-06-22T03:20:07;4.88;;;3.30;;
52972;SDS011;38837;48.916;2.336;2023-06-22T03:22:10;6.32;;;3.45;;
52972;SDS011;38837;48.916;2.336;2023-06-22T03:24:14;3.65;;;2.75;;
52972;SDS011;38837;48.916;2.336;2023-06-22T03:26:17;3.78;;;3.00;;
52972;SDS011;38837;48.916;2.336;2023-06-22T03:28:19;4.55;;;3.15;;
52972;SDS011;38837;48.916;2.336;2023-06-22T03:30:21;3.28;;;2.80;;
52972;SDS011;38837;48.916;2.336;2023-06-22T03:32:23;5.22;;;3.03;;
52972;SDS011;38837;48.916;2.336;2023-06-22T03:34:27;5.07;;;3.07;;
52972;SDS011;38837;48.916;2.336;2023-06-22T03:36:28;4.30;;;2.92;;
52972;SDS011;38837;48.916;2.336;2023-06-22T03:38:30;3.95;;;3.10;;
52972;SDS011;38837;48.916;2.336;2023-06-22T03:40:32;4.72;;;2.95;;
52972;SDS011;38837;48.916;2.336;2023-06-22T03:42:34;3.67;;;2.75;;
52972;SDS011;38837;48.916;2.336;2023-06-22T03:44:39;6.25;;;3.58;;
52972;SDS011;38837;48.916;2.336;2023-06-22T03:46:41;5.43;;;3.03;;
52972;SDS011;38837;48.916;2.336;2023-06-22T03:48:43;3.40;;;2.78;;
52972;SDS011;38837;48.916;2.336;2023-06-22T03:50:45;5.55;;;3.60;;
52972;SDS011;38837;48.916;2.336;2023-06-22T03:52:47;3.80;;;2.97;;
52972;SDS011;38837;48.916;2.336;2023-06-22T03:54:49;3.90;;;3.20;;
52972;SDS011;38837;48.916;2.336;2023-06-22T03:56:51;7.03;;;3.10;;
52972;SDS011;38837;48.916;2.336;2023-06-22T03:58:53;6.72;;;2.70;;
52972;SDS011;38837;48.916;2.336;2023-06-22T04:00:55;4.53;;;2.85;;
52972;SDS011;38837;48.916;2.336;2023-06-22T04:02:57;5.72;;;3.67;;
52972;SDS011;38837;48.916;2.336;2023-06-22T04:04:59;4.68;;;3.03;;
52972;SDS011;38837;48.916;2.336;2023-06-22T04:07:05;3.38;;;2.45;;
52972;SDS011;38837;48.916;2.336;2023-06-22T04:09:07;4.07;;;3.15;;
52972;SDS011;38837;48.916;2.336;2023-06-22T04:11:09;4.35;;;3.17;;
52972;SDS011;38837;48.916;2.336;2023-06-22T04:13:11;3.72;;;2.90;;
52972;SDS011;38837;48.916;2.336;2023-06-22T04:15:13;4.50;;;3.30;;
52972;SDS011;38837;48.916;2.336;2023-06-22T04:17:15;3.67;;;2.78;;
52972;SDS011;38837;48.916;2.336;2023-06-22T04:19:18;4.15;;;2.90;;
52972;SDS011;38837;48.916;2.336;2023-06-22T04:21:20;4.90;;;3.00;;
52972;SDS011;38837;48.916;2.336;2023-06-22T04:23:22;4.70;;;3.13;;
52972;SDS011;38837;48.916;2.336;2023-06-22T04:25:24;5.80;;;3.33;;
52972;SDS011;38837;48.916;2.336;2023-06-22T04:27:26;5.35;;;3.25;;
52972;SDS011;38837;48.916;2.336;2023-06-22T04:29:29;6.00;;;3.05;;
52972;SDS011;38837;48.916;2.336;2023-06-22T04:31:32;5.25;;;3.10;;
52972;SDS011;38837;48.916;2.336;2023-06-22T04:33:38;5.22;;;3.40;;
52972;SDS011;38837;48.916;2.336;2023-06-22T04:35:44;4.03;;;2.95;;
52972;SDS011;38837;48.916;2.336;2023-06-22T04:37:46;4.90;;;3.40;;
52972;SDS011;38837;48.916;2.336;2023-06-22T04:41:52;4.22;;;2.85;;
52972;SDS011;38837;48.916;2.336;2023-06-22T04:43:54;6.03;;;3.13;;
52972;SDS011;38837;48.916;2.336;2023-06-22T04:46:01;4.55;;;2.85;;
52972;SDS011;38837;48.916;2.336;2023-06-22T04:48:05;4.60;;;3.40;;
52972;SDS011;38837;48.916;2.336;2023-06-22T04:50:07;3.63;;;2.70;;
52972;SDS011;38837;48.916;2.336;2023-06-22T04:52:11;4.68;;;3.30;;
52972;SDS011;38837;48.916;2.336;2023-06-22T04:56:15;3.22;;;2.75;;
52972;SDS011;38837;48.916;2.336;2023-06-22T04:58:18;3.83;;;3.13;;
52972;SDS011;38837;48.916;2.336;2023-06-22T05:00:21;4.80;;;3.40;;
52972;SDS011;38837;48.916;2.336;2023-06-22T05:02:24;5.10;;;3.20;;
52972;SDS011;38837;48.916;2.336;2023-06-22T05:04:29;5.35;;;2.85;;
52972;SDS011;38837;48.916;2.336;2023-06-22T05:06:34;7.57;;;3.40;;
52972;SDS011;38837;48.916;2.336;2023-06-22T05:08:37;6.03;;;3.03;;
52972;SDS011;38837;48.916;2.336;2023-06-22T05:10:39;3.75;;;3.00;;
52972;SDS011;38837;48.916;2.336;2023-06-22T05:12:59;4.97;;;3.25;;
52972;SDS011;38837;48.916;2.336;2023-06-22T05:15:01;4.35;;;3.33;;
52972;SDS011;38837;48.916;2.336;2023-06-22T05:17:03;4.13;;;2.97;;
52972;SDS011;38837;48.916;2.336;2023-06-22T05:19:05;3.90;;;3.00;;
52972;SDS011;38837;48.916;2.336;2023-06-22T05:21:07;4.15;;;2.88;;
52972;SDS011;38837;48.916;2.336;2023-06-22T05:23:09;4.45;;;3.25;;
52972;SDS011;38837;48.916;2.336;2023-06-22T05:25:12;6.03;;;3.22;;
52972;SDS011;38837;48.916;2.336;2023-06-22T05:27:14;4.63;;;3.25;;
52972;SDS011;38837;48.916;2.336;2023-06-22T05:29:16;5.10;;;3.47;;
52972;SDS011;38837;48.916;2.336;2023-06-22T05:31:18;4.45;;;3.28;;
52972;SDS011;38837;48.916;2.336;2023-06-22T05:33:23;7.28;;;3.85;;
52972;SDS011;38837;48.916;2.336;2023-06-22T05:35:25;6.07;;;3.78;;
52972;SDS011;38837;48.916;2.336;2023-06-22T05:37:27;7.07;;;3.78;;
52972;SDS011;38837;48.916;2.336;2023-06-22T05:39:30;5.73;;;3.60;;
52972;SDS011;38837;48.916;2.336;2023-06-22T05:41:32;5.88;;;3.38;;
52972;SDS011;38837;48.916;2.336;2023-06-22T05:43:34;4.78;;;3.72;;
52972;SDS011;38837;48.916;2.336;2023-06-22T05:45:36;5.63;;;3.50;;
52972;SDS011;38837;48.916;2.336;2023-06-22T05:47:38;5.03;;;3.05;;
52972;SDS011;38837;48.916;2.336;2023-06-22T05:49:40;5.63;;;3.13;;
52972;SDS011;38837;48.916;2.336;2023-06-22T05:51:42;6.32;;;4.00;;
52972;SDS011;38837;48.916;2.336;2023-06-22T05:53:44;6.20;;;3.97;;
52972;SDS011;38837;48.916;2.336;2023-06-22T05:55:50;4.75;;;3.47;;
52972;SDS011;38837;48.916;2.336;2023-06-22T05:57:53;4.50;;;3.30;;
52972;SDS011;38837;48.916;2.336;2023-06-22T05:59:54;4.97;;;3.55;;
52972;SDS011;38837;48.916;2.336;2023-06-22T06:01:57;6.82;;;3.33;;
52972;SDS011;38837;48.916;2.336;2023-06-22T06:03:59;5.53;;;3.42;;
52972;SDS011;38837;48.916;2.336;2023-06-22T06:06:00;4.65;;;3.28;;
52972;SDS011;38837;48.916;2.336;2023-06-22T06:08:05;8.23;;;4.00;;
52972;SDS011;38837;48.916;2.336;2023-06-22T06:10:08;5.28;;;3.55;;
52972;SDS011;38837;48.916;2.336;2023-06-22T06:12:10;5.95;;;3.47;;
52972;SDS011;38837;48.916;2.336;2023-06-22T06:14:12;8.90;;;4.18;;
52972;SDS011;38837;48.916;2.336;2023-06-22T06:16:14;5.15;;;3.60;;
52972;SDS011;38837;48.916;2.336;2023-06-22T06:18:16;4.28;;;3.03;;
52972;SDS011;38837;48.916;2.336;2023-06-22T06:20:19;5.55;;;3.60;;
52972;SDS011;38837;48.916;2.336;2023-06-22T06:22:22;5.18;;;3.72;;
52972;SDS011;38837;48.916;2.336;2023-06-22T06:24:24;6.95;;;3.80;;
52972;SDS011;38837;48.916;2.336;2023-06-22T06:26:26;5.90;;;3.42;;
52972;SDS011;38837;48.916;2.336;2023-06-22T06:28:34;7.20;;;3.88;;
52972;SDS011;38837;48.916;2.336;2023-06-22T06:30:36;5.03;;;3.38;;
52972;SDS011;38837;48.916;2.336;2023-06-22T06:32:38;7.10;;;3.72;;
52972;SDS011;38837;48.916;2.336;2023-06-22T06:34:41;8.57;;;4.25;;
52972;SDS011;38837;48.916;2.336;2023-06-22T06:36:43;6.57;;;3.72;;
52972;SDS011;38837;48.916;2.336;2023-06-22T06:38:45;6.53;;;3.85;;
52972;SDS011;38837;48.916;2.336;2023-06-22T06:40:48;5.57;;;3.35;;
52972;SDS011;38837;48.916;2.336;2023-06-22T06:42:50;6.00;;;4.15;;
52972;SDS011;38837;48.916;2.336;2023-06-22T06:44:52;5.80;;;3.22;;
52972;SDS011;38837;48.916;2.336;2023-06-22T06:46:54;7.18;;;4.22;;
52972;SDS011;38837;48.916;2.336;2023-06-22T06:48:56;5.15;;;3.55;;
52972;SDS011;38837;48.916;2.336;2023-06-22T06:50:58;8.27;;;3.97;;
52972;SDS011;38837;48.916;2.336;2023-06-22T06:52:59;5.22;;;3.65;;
52972;SDS011;38837;48.916;2.336;2023-06-22T06:55:01;7.10;;;3.80;;
52972;SDS011;38837;48.916;2.336;2023-06-22T06:57:06;5.60;;;3.55;;
52972;SDS011;38837;48.916;2.336;2023-06-22T06:59:08;7.50;;;3.85;;
52972;SDS011;38837;48.916;2.336;2023-06-22T07:01:10;6.85;;;3.75;;
52972;SDS011;38837;48.916;2.336;2023-06-22T07:03:13;10.45;;;4.18;;
52972;SDS011;38837;48.916;2.336;2023-06-22T07:05:15;6.50;;;3.90;;
52972;SDS011;38837;48.916;2.336;2023-06-22T07:07:17;7.15;;;3.95;;
52972;SDS011;38837;48.916;2.336;2023-06-22T07:09:19;8.90;;;4.40;;
52972;SDS011;38837;48.916;2.336;2023-06-22T07:11:21;8.68;;;4.00;;
52972;SDS011;38837;48.916;2.336;2023-06-22T07:13:23;15.10;;;3.72;;
52972;SDS011;38837;48.916;2.336;2023-06-22T07:15:25;5.90;;;3.70;;
52972;SDS011;38837;48.916;2.336;2023-06-22T07:17:27;6.57;;;3.78;;
52972;SDS011;38837;48.916;2.336;2023-06-22T07:19:29;8.32;;;3.95;;
52972;SDS011;38837;48.916;2.336;2023-06-22T07:21:32;8.23;;;4.32;;
52972;SDS011;38837;48.916;2.336;2023-06-22T07:23:34;9.82;;;3.80;;
52972;SDS011;38837;48.916;2.336;2023-06-22T07:25:38;6.30;;;3.55;;
52972;SDS011;38837;48.916;2.336;2023-06-22T07:27:56;8.32;;;3.65;;
52972;SDS011;38837;48.916;2.336;2023-06-22T07:30:05;7.10;;;4.10;;
52972;SDS011;38837;48.916;2.336;2023-06-22T07:32:07;6.28;;;3.67;;
52972;SDS011;38837;48.916;2.336;2023-06-22T07:34:09;6.10;;;3.47;;
52972;SDS011;38837;48.916;2.336;2023-06-22T07:36:11;6.72;;;3.97;;
52972;SDS011;38837;48.916;2.336;2023-06-22T07:38:13;7.05;;;4.50;;
52972;SDS011;38837;48.916;2.336;2023-06-22T07:40:16;6.97;;;4.03;;
52972;SDS011;38837;48.916;2.336;2023-06-22T07:42:18;7.30;;;3.88;;
52972;SDS011;38837;48.916;2.336;2023-06-22T07:44:20;12.60;;;4.50;;
52972;SDS011;38837;48.916;2.336;2023-06-22T07:46:23;7.20;;;3.65;;
52972;SDS011;38837;48.916;2.336;2023-06-22T07:48:24;8.25;;;4.38;;
52972;SDS011;38837;48.916;2.336;2023-06-22T07:50:27;6.90;;;3.92;;
52972;SDS011;38837;48.916;2.336;2023-06-22T07:52:29;7.55;;;4.28;;
52972;SDS011;38837;48.916;2.336;2023-06-22T07:54:31;7.07;;;4.05;;
52972;SDS011;38837;48.916;2.336;2023-06-22T07:56:33;8.85;;;4.40;;
52972;SDS011;38837;48.916;2.336;2023-06-22T07:58:36;9.38;;;4.10;;
52972;SDS011;38837;48.916;2.336;2023-06-22T08:00:38;7.07;;;3.95;;
52972;SDS011;38837;48.916;2.336;2023-06-22T08:02:40;7.30;;;4.05;;
52972;SDS011;38837;48.916;2.336;2023-06-22T08:04:42;7.55;;;4.22;;
52972;SDS011;38837;48.916;2.336;2023-06-22T08:06:44;10.65;;;4.68;;
52972;SDS011;38837;48.916;2.336;2023-06-22T08:08:46;13.20;;;4.90;;
52972;SDS011;38837;48.916;2.336;2023-06-22T08:10:55;12.07;;;4.82;;
52972;SDS011;38837;48.916;2.336;2023-06-22T08:12:56;8.23;;;4.35;;
52972;SDS011;38837;48.916;2.336;2023-06-22T08:14:58;8.07;;;4.40;;
52972;SDS011;38837;48.916;2.336;2023-06-22T08:17:00;7.30;;;4.22;;
52972;SDS011;38837;48.916;2.336;2023-06-22T08:19:02;6.47;;;4.32;;
52972;SDS011;38837;48.916;2.336;2023-06-22T08:21:04;5.47;;;4.13;;
52972;SDS011;38837;48.916;2.336;2023-06-22T08:23:06;6.88;;;4.13;;
52972;SDS011;38837;48.916;2.336;2023-06-22T08:25:08;8.20;;;4.38;;
52972;SDS011;38837;48.916;2.336;2023-06-22T08:27:10;9.25;;;4.03;;
52972;SDS011;38837;48.916;2.336;2023-06-22T08:29:22;6.05;;;3.88;;
52972;SDS011;38837;48.916;2.336;2023-06-22T08:31:24;9.07;;;4.20;;
52972;SDS011;38837;48.916;2.336;2023-06-22T08:33:26;16.50;;;5.15;;
52972;SDS011;38837;48.916;2.336;2023-06-22T08:35:29;10.40;;;5.35;;
52972;SDS011;38837;48.916;2.336;2023-06-22T08:37:32;5.40;;;3.83;;
52972;SDS011;38837;48.916;2.336;2023-06-22T08:39:37;7.00;;;4.38;;
52972;SDS011;38837;48.916;2.336;2023-06-22T08:41:40;7.47;;;4.47;;
52972;SDS011;38837;48.916;2.336;2023-06-22T08:43:42;6.93;;;4.50;;
52972;SDS011;38837;48.916;2.336;2023-06-22T08:45:45;6.90;;;4.65;;
52972;SDS011;38837;48.916;2.336;2023-06-22T08:47:47;8.05;;;4.15;;
52972;SDS011;38837;48.916;2.336;2023-06-22T08:49:49;7.50;;;4.65;;
52972;SDS011;38837;48.916;2.336;2023-06-22T08:51:51;6.00;;;3.92;;
52972;SDS011;38837;48.916;2.336;2023-06-22T08:53:55;8.23;;;4.72;;
52972;SDS011;38837;48.916;2.336;2023-06-22T08:55:57;10.15;;;4.68;;
52972;SDS011;38837;48.916;2.336;2023-06-22T08:57:59;12.65;;;5.07;;
52972;SDS011;38837;48.916;2.336;2023-06-22T09:00:00;9.80;;;4.40;;
52972;SDS011;38837;48.916;2.336;2023-06-22T09:02:02;8.20;;;4.07;;
52972;SDS011;38837;48.916;2.336;2023-06-22T09:04:04;7.22;;;4.80;;
52972;SDS011;38837;48.916;2.336;2023-06-22T09:06:09;7.75;;;4.15;;
52972;SDS011;38837;48.916;2.336;2023-06-22T09:08:11;9.52;;;5.05;;
52972;SDS011;38837;48.916;2.336;2023-06-22T09:10:12;8.65;;;4.68;;
52972;SDS011;38837;48.916;2.336;2023-06-22T09:12:14;9.00;;;4.53;;
52972;SDS011;38837;48.916;2.336;2023-06-22T09:14:16;6.25;;;4.18;;
52972;SDS011;38837;48.916;2.336;2023-06-22T09:16:18;12.15;;;4.47;;
52972;SDS011;38837;48.916;2.336;2023-06-22T09:18:20;8.48;;;4.38;;
52972;SDS011;38837;48.916;2.336;2023-06-22T09:20:22;7.18;;;4.10;;
52972;SDS011;38837;48.916;2.336;2023-06-22T09:22:24;9.02;;;4.28;;
52972;SDS011;38837;48.916;2.336;2023-06-22T09:24:30;7.88;;;4.32;;
52972;SDS011;38837;48.916;2.336;2023-06-22T09:26:32;6.22;;;4.25;;
52972;SDS011;38837;48.916;2.336;2023-06-22T09:28:34;9.90;;;4.32;;
52972;SDS011;38837;48.916;2.336;2023-06-22T09:30:36;9.07;;;5.03;;
52972;SDS011;38837;48.916;2.336;2023-06-22T09:32:37;14.20;;;5.82;;
52972;SDS011;38837;48.916;2.336;2023-06-22T09:34:39;9.98;;;5.72;;
52972;SDS011;38837;48.916;2.336;2023-06-22T09:36:42;9.35;;;5.85;;
52972;SDS011;38837;48.916;2.336;2023-06-22T09:38:43;11.77;;;5.80;;
52972;SDS011;38837;48.916;2.336;2023-06-22T09:40:45;16.33;;;5.45;;
52972;SDS011;38837;48.916;2.336;2023-06-22T09:42:47;14.15;;;5.78;;
52972;SDS011;38837;48.916;2.336;2023-06-22T09:44:49;14.90;;;6.40;;
52972;SDS011;38837;48.916;2.336;2023-06-22T09:46:51;16.90;;;8.18;;
52972;SDS011;38837;48.916;2.336;2023-06-22T09:48:53;17.27;;;7.85;;
52972;SDS011;38837;48.916;2.336;2023-06-22T09:50:55;15.25;;;7.20;;
52972;SDS011;38837;48.916;2.336;2023-06-22T09:52:57;22.42;;;7.18;;
52972;SDS011;38837;48.916;2.336;2023-06-22T09:54:59;20.08;;;8.05;;
52972;SDS011;38837;48.916;2.336;2023-06-22T09:57:01;22.15;;;8.45;;
52972;SDS011;38837;48.916;2.336;2023-06-22T09:59:03;24.13;;;9.10;;
52972;SDS011;38837;48.916;2.336;2023-06-22T10:01:18;17.08;;;8.13;;
52972;SDS011;38837;48.916;2.336;2023-06-22T10:05:24;14.07;;;8.30;;
52972;SDS011;38837;48.916;2.336;2023-06-22T10:07:26;13.35;;;8.52;;
52972;SDS011;38837;48.916;2.336;2023-06-22T10:09:28;14.55;;;7.38;;
52972;SDS011;38837;48.916;2.336;2023-06-22T10:11:30;26.15;;;8.27;;
52972;SDS011;38837;48.916;2.336;2023-06-22T10:13:32;27.42;;;8.65;;
52972;SDS011;38837;48.916;2.336;2023-06-22T10:15:34;27.67;;;8.70;;
52972;SDS011;38837;48.916;2.336;2023-06-22T10:17:36;20.58;;;8.00;;
52972;SDS011;38837;48.916;2.336;2023-06-22T10:19:38;17.65;;;7.85;;
52972;SDS011;38837;48.916;2.336;2023-06-22T10:23:44;12.65;;;7.68;;
52972;SDS011;38837;48.916;2.336;2023-06-22T10:25:48;14.38;;;7.13;;
52972;SDS011;38837;48.916;2.336;2023-06-22T10:27:50;11.75;;;6.72;;
52972;SDS011;38837;48.916;2.336;2023-06-22T10:29:52;12.27;;;7.47;;
52972;SDS011;38837;48.916;2.336;2023-06-22T10:31:55;10.68;;;6.97;;
52972;SDS011;38837;48.916;2.336;2023-06-22T10:33:57;11.05;;;6.03;;
52972;SDS011;38837;48.916;2.336;2023-06-22T10:35:58;11.20;;;6.25;;
52972;SDS011;38837;48.916;2.336;2023-06-22T10:38:00;12.30;;;6.05;;
52972;SDS011;38837;48.916;2.336;2023-06-22T10:40:03;11.40;;;6.72;;
52972;SDS011;38837;48.916;2.336;2023-06-22T10:42:05;13.70;;;7.25;;
52972;SDS011;38837;48.916;2.336;2023-06-22T10:44:07;10.82;;;6.45;;
52972;SDS011;38837;48.916;2.336;2023-06-22T10:46:09;11.60;;;7.18;;
52972;SDS011;38837;48.916;2.336;2023-06-22T10:48:11;8.82;;;5.80;;
52972;SDS011;38837;48.916;2.336;2023-06-22T10:50:13;13.20;;;6.80;;
52972;SDS011;38837;48.916;2.336;2023-06-22T10:52:15;11.15;;;6.70;;
52972;SDS011;38837;48.916;2.336;2023-06-22T10:54:17;15.73;;;6.95;;
52972;SDS011;38837;48.916;2.336;2023-06-22T10:56:20;11.63;;;7.35;;
52972;SDS011;38837;48.916;2.336;2023-06-22T10:58:22;14.05;;;7.47;;
52972;SDS011;38837;48.916;2.336;2023-06-22T11:00:24;10.60;;;6.32;;
52972;SDS011;38837;48.916;2.336;2023-06-22T11:02:26;13.60;;;6.43;;
52972;SDS011;38837;48.916;2.336;2023-06-22T11:04:29;12.43;;;6.32;;
52972;SDS011;38837;48.916;2.336;2023-06-22T11:06:31;10.48;;;5.75;;
52972;SDS011;38837;48.916;2.336;2023-06-22T11:08:33;10.82;;;6.50;;
52972;SDS011;38837;48.916;2.336;2023-06-22T11:10:35;8.35;;;6.57;;
52972;SDS011;38837;48.916;2.336;2023-06-22T11:12:37;9.43;;;6.47;;
52972;SDS011;38837;48.916;2.336;2023-06-22T11:14:39;12.68;;;6.90;;
52972;SDS011;38837;48.916;2.336;2023-06-22T11:16:41;11.75;;;6.53;;
52972;SDS011;38837;48.916;2.336;2023-06-22T11:18:43;14.60;;;7.07;;
52972;SDS011;38837;48.916;2.336;2023-06-22T11:20:45;10.02;;;6.63;;
52972;SDS011;38837;48.916;2.336;2023-06-22T11:22:48;11.18;;;7.25;;
52972;SDS011;38837;48.916;2.336;2023-06-22T11:24:50;10.15;;;5.72;;
52972;SDS011;38837;48.916;2.336;2023-06-22T11:26:52;12.68;;;6.22;;
52972;SDS011;38837;48.916;2.336;2023-06-22T11:28:54;10.50;;;6.05;;
52972;SDS011;38837;48.916;2.336;2023-06-22T11:30:56;14.38;;;6.97;;
52972;SDS011;38837;48.916;2.336;2023-06-22T11:33:00;11.73;;;6.40;;
52972;SDS011;38837;48.916;2.336;2023-06-22T11:35:02;9.82;;;6.55;;
52972;SDS011;38837;48.916;2.336;2023-06-22T11:37:05;9.63;;;6.15;;
52972;SDS011;38837;48.916;2.336;2023-06-22T11:39:08;10.05;;;5.35;;
52972;SDS011;38837;48.916;2.336;2023-06-22T11:41:11;12.70;;;6.65;;
52972;SDS011;38837;48.916;2.336;2023-06-22T11:43:13;10.98;;;6.88;;
52972;SDS011;38837;48.916;2.336;2023-06-22T11:45:16;8.45;;;5.80;;
52972;SDS011;38837;48.916;2.336;2023-06-22T11:47:19;13.65;;;6.95;;
52972;SDS011;38837;48.916;2.336;2023-06-22T11:49:21;12.80;;;7.03;;
52972;SDS011;38837;48.916;2.336;2023-06-22T11:51:23;19.70;;;8.35;;
52972;SDS011;38837;48.916;2.336;2023-06-22T11:53:26;12.00;;;7.10;;
52972;SDS011;38837;48.916;2.336;2023-06-22T11:55:28;14.00;;;6.40;;
52972;SDS011;38837;48.916;2.336;2023-06-22T11:57:32;9.70;;;6.38;;
52972;SDS011;38837;48.916;2.336;2023-06-22T11:59:37;11.57;;;7.72;;
52972;SDS011;38837;48.916;2.336;2023-06-22T12:01:39;10.75;;;6.43;;
52972;SDS011;38837;48.916;2.336;2023-06-22T12:03:41;12.57;;;6.38;;
52972;SDS011;38837;48.916;2.336;2023-06-22T12:05:45;13.63;;;7.88;;
52972;SDS011;38837;48.916;2.336;2023-06-22T12:07:47;19.67;;;8.35;;
52972;SDS011;38837;48.916;2.336;2023-06-22T12:09:49;13.27;;;7.50;;
52972;SDS011;38837;48.916;2.336;2023-06-22T12:11:51;13.13;;;7.00;;
52972;SDS011;38837;48.916;2.336;2023-06-22T12:13:53;12.57;;;7.30;;
52972;SDS011;38837;48.916;2.336;2023-06-22T12:15:55;13.20;;;7.93;;
52972;SDS011;38837;48.916;2.336;2023-06-22T12:17:57;16.30;;;7.82;;
52972;SDS011;38837;48.916;2.336;2023-06-22T12:19:59;12.30;;;7.63;;
52972;SDS011;38837;48.916;2.336;2023-06-22T12:22:01;15.35;;;7.55;;
52972;SDS011;38837;48.916;2.336;2023-06-22T12:24:02;16.33;;;7.65;;
52972;SDS011;38837;48.916;2.336;2023-06-22T12:26:05;13.60;;;8.82;;
52972;SDS011;38837;48.916;2.336;2023-06-22T12:28:06;14.77;;;8.23;;
52972;SDS011;38837;48.916;2.336;2023-06-22T12:30:13;16.80;;;9.63;;
52972;SDS011;38837;48.916;2.336;2023-06-22T12:32:15;15.85;;;9.18;;